Time;durP1;ratioP1;P1;durP2;ratioP2;P2;SDS_P1;SDS_P2;PMS_P1;PMS_P2;Temp;Humidity;BMP_temperature;BMP_pressure;BME280_temperature;BME280_humidity;BME280_pressure;Samples;Min_cycle;Max_cycle;Signal;HPM_P1;HPM_P2
2022/01/16 00:00:51;;;;;;;22.40;13.93;;;8.70;79.90;;;;;;5038969;28;20485;-47
2022/01/16 00:06:01;;;;;;;23.48;14.10;;;8.70;80.80;;;;;;5039006;28;20037;-47
2022/01/16 00:08:28;;;;;;;23.65;14.00;;;8.70;79.90;;;;;;5038838;28;20462;-45
2022/01/16 00:10:53;;;;;;;22.60;13.75;;;8.70;79.70;;;;;;5038995;28;20100;-48
2022/01/16 00:13:19;;;;;;;25.40;12.95;;;8.80;79.70;;;;;;5038968;28;20104;-46
2022/01/16 00:15:45;;;;;;;24.95;12.68;;;8.80;79.50;;;;;;5038813;28;20021;-47
2022/01/16 00:18:23;;;;;;;23.70;12.90;;;8.80;80.20;;;;;;5037365;28;20076;-46
2022/01/16 00:20:50;;;;;;;21.48;12.05;;;8.80;79.50;;;;;;5038444;28;20053;-45
2022/01/16 00:23:28;;;;;;;21.60;13.15;;;8.80;79.20;;;;;;5038959;28;20039;-47
2022/01/16 00:25:56;;;;;;;22.65;13.80;;;8.80;80.80;;;;;;5038723;28;20531;-45
2022/01/16 00:28:24;;;;;;;25.90;13.50;;;8.80;79.50;;;;;;5038440;28;20025;-45
2022/01/16 00:30:50;;;;;;;24.10;13.77;;;8.80;79.60;;;;;;5038439;28;20026;-46
2022/01/16 00:33:18;;;;;;;21.30;12.68;;;8.80;79.30;;;;;;5038638;28;20025;-45
2022/01/16 00:35:44;;;;;;;20.88;12.98;;;8.80;80.80;;;;;;5038598;28;20164;-46
2022/01/16 00:38:10;;;;;;;20.80;12.00;;;8.80;80.90;;;;;;5038302;28;20017;-46
2022/01/16 00:40:36;;;;;;;20.35;12.55;;;8.80;80.00;;;;;;5038242;28;20059;-45
2022/01/16 00:43:03;;;;;;;20.83;12.98;;;8.80;79.30;;;;;;5038460;28;20025;-45
2022/01/16 00:45:29;;;;;;;22.42;13.40;;;8.80;79.50;;;;;;5038334;28;20026;-46
2022/01/16 00:47:55;;;;;;;20.55;12.68;;;8.80;79.70;;;;;;5038338;28;20040;-47
2022/01/16 00:50:21;;;;;;;20.08;12.55;;;8.80;80.40;;;;;;5038105;28;20021;-46
2022/01/16 00:52:47;;;;;;;21.25;12.65;;;8.80;79.80;;;;;;5038266;28;20022;-45
2022/01/16 00:55:13;;;;;;;21.38;13.73;;;8.90;79.00;;;;;;5038019;28;20017;-46
2022/01/16 00:57:39;;;;;;;20.67;12.07;;;8.90;80.20;;;;;;5037989;28;20418;-46
2022/01/16 01:00:06;;;;;;;22.85;13.30;;;8.80;79.80;;;;;;5038003;28;20382;-47
2022/01/16 01:02:31;;;;;;;20.27;12.80;;;8.80;79.80;;;;;;5037999;28;20057;-45
2022/01/16 01:04:57;;;;;;;21.20;12.85;;;8.80;79.60;;;;;;5037793;28;20381;-46
2022/01/16 01:07:23;;;;;;;17.33;11.40;;;8.80;79.60;;;;;;5037863;28;20033;-45
2022/01/16 01:09:49;;;;;;;19.88;12.43;;;8.80;79.60;;;;;;5037987;28;20547;-45
2022/01/16 01:12:26;;;;;;;19.45;12.88;;;8.80;79.40;;;;;;5037795;28;20446;-46
2022/01/16 01:15:08;;;;;;;24.00;12.77;;;8.80;79.80;;;;;;5037873;28;20025;-47
2022/01/16 01:17:46;;;;;;;22.35;13.07;;;8.80;80.50;;;;;;5037766;28;20026;-46
2022/01/16 01:20:18;;;;;;;19.13;11.88;;;8.80;79.50;;;;;;5037288;28;20049;-47
2022/01/16 01:22:45;;;;;;;25.25;12.30;;;8.80;79.80;;;;;;5037475;28;20470;-48
2022/01/16 01:25:13;;;;;;;19.10;11.90;;;8.80;79.90;;;;;;5037773;28;20033;-46
2022/01/16 01:27:41;;;;;;;20.35;11.85;;;8.80;79.80;;;;;;5037547;28;20029;-47
2022/01/16 01:30:09;;;;;;;19.15;12.07;;;8.80;81.00;;;;;;5037815;28;20104;-45
2022/01/16 01:32:40;;;;;;;21.25;12.23;;;8.80;80.60;;;;;;5038032;28;20049;-46
2022/01/16 01:35:08;;;;;;;21.80;12.07;;;8.80;80.80;;;;;;5037774;28;20021;-46
2022/01/16 01:37:34;;;;;;;23.35;13.02;;;8.90;80.30;;;;;;5037833;28;20079;-46
2022/01/16 01:40:02;;;;;;;21.67;12.63;;;8.80;79.70;;;;;;5037474;28;20022;-45
2022/01/16 01:42:33;;;;;;;21.88;12.85;;;8.90;80.90;;;;;;5037662;28;20061;-48
2022/01/16 01:53:13;;;;;;;24.15;13.43;;;8.90;80.00;;;;;;5037492;28;20068;-45
2022/01/16 01:55:42;;;;;;;21.20;12.68;;;8.90;80.10;;;;;;5037562;28;20034;-46
2022/01/16 01:58:09;;;;;;;23.00;13.02;;;8.90;80.50;;;;;;5037195;28;20448;-46
2022/01/16 02:00:35;;;;;;;21.90;12.73;;;8.90;80.40;;;;;;5037533;28;20029;-47
2022/01/16 02:05:30;;;;;;;17.58;11.70;;;8.90;79.10;;;;;;5037208;28;20105;-46
2022/01/16 02:07:57;;;;;;;19.73;12.43;;;8.90;79.70;;;;;;5037454;28;20022;-45
2022/01/16 02:10:23;;;;;;;20.20;11.65;;;8.90;79.70;;;;;;5037449;28;20044;-45
2022/01/16 02:12:56;;;;;;;18.42;12.00;;;8.90;80.00;;;;;;5037159;28;20511;-45
2022/01/16 02:31:31;;;;;;;20.70;11.98;;;8.90;79.70;;;;;;5040737;28;20022;-45
2022/01/16 02:34:42;;;;;;;17.08;11.50;;;8.90;81.10;;;;;;5040839;28;20036;-46
2022/01/16 02:36:49;;;;;;;18.77;11.57;;;8.90;80.70;;;;;;5042730;28;20034;-46
2022/01/16 02:39:16;;;;;;;18.92;11.85;;;8.90;80.10;;;;;;5040777;28;20037;-46
2022/01/16 02:41:44;;;;;;;18.75;11.10;;;9.00;80.20;;;;;;5040697;28;20021;-47
2022/01/16 02:46:47;;;;;;;17.17;11.10;;;8.90;80.20;;;;;;5040152;28;20029;-46
2022/01/16 02:49:31;;;;;;;18.75;10.90;;;8.90;80.00;;;;;;5040373;28;20025;-47
2022/01/16 02:51:59;;;;;;;20.57;11.07;;;8.90;80.60;;;;;;5040821;28;20025;-45
2022/01/16 02:54:27;;;;;;;17.92;11.15;;;9.00;79.70;;;;;;5040360;28;20025;-46
2022/01/16 02:56:53;;;;;;;18.30;10.88;;;8.90;80.90;;;;;;5040833;28;20033;-47
2022/01/16 02:59:20;;;;;;;18.20;11.10;;;8.90;80.40;;;;;;5040258;28;20025;-46
2022/01/16 03:01:46;;;;;;;19.15;12.07;;;9.00;80.20;;;;;;5040077;28;20444;-45
2022/01/16 03:04:12;;;;;;;19.65;10.88;;;9.00;79.80;;;;;;5040139;28;20030;-46
2022/01/16 03:06:38;;;;;;;19.80;11.23;;;9.00;80.20;;;;;;5040180;28;20030;-45
2022/01/16 03:09:09;;;;;;;19.05;9.80;;;9.00;80.60;;;;;;5040229;28;20048;-46
2022/01/16 03:11:42;;;;;;;17.92;11.23;;;9.00;81.20;;;;;;5039760;28;20481;-47
2022/01/16 03:14:12;;;;;;;19.92;11.73;;;9.00;80.00;;;;;;5039900;28;20026;-45
2022/01/16 03:16:42;;;;;;;18.17;11.13;;;9.00;79.90;;;;;;5040071;28;20034;-46
2022/01/16 03:22:02;;;;;;;17.27;10.13;;;9.00;79.60;;;;;;5039525;28;20079;-47
2022/01/16 03:24:36;;;;;;;20.02;10.85;;;8.90;79.50;;;;;;5039485;28;20401;-46
2022/01/16 03:27:10;;;;;;;19.42;11.63;;;8.90;79.20;;;;;;5039717;28;20044;-45
2022/01/16 03:29:38;;;;;;;18.90;11.48;;;8.90;80.50;;;;;;5039852;28;20022;-45
2022/01/16 03:32:07;;;;;;;22.13;11.65;;;8.90;79.30;;;;;;5039896;28;20021;-46
2022/01/16 03:34:33;;;;;;;20.05;11.45;;;8.90;80.20;;;;;;5039497;28;20018;-46
2022/01/16 03:36:59;;;;;;;16.75;10.68;;;8.90;80.10;;;;;;5039553;28;20030;-46
2022/01/16 03:39:26;;;;;;;19.27;11.00;;;8.80;79.70;;;;;;5039647;28;20380;-45
2022/01/16 03:41:52;;;;;;;20.20;10.85;;;8.90;80.80;;;;;;5039596;28;20029;-46
2022/01/16 03:44:18;;;;;;;17.17;10.88;;;8.90;80.10;;;;;;5039548;28;20037;-46
2022/01/16 03:46:44;;;;;;;16.95;10.63;;;8.90;80.20;;;;;;5039150;28;20033;-46
2022/01/16 03:49:13;;;;;;;17.38;10.13;;;8.90;80.00;;;;;;5039165;28;20389;-46
2022/01/16 03:51:41;;;;;;;20.05;10.73;;;8.90;79.60;;;;;;5039386;28;20032;-46
2022/01/16 03:54:09;;;;;;;18.23;10.07;;;8.90;80.40;;;;;;5039159;28;20025;-45
2022/01/16 03:56:36;;;;;;;15.10;9.68;;;8.90;79.90;;;;;;5039097;28;20035;-45
2022/01/16 03:59:02;;;;;;;17.73;10.10;;;8.90;80.60;;;;;;5039024;28;20025;-45
2022/01/16 04:01:28;;;;;;;18.42;10.30;;;8.90;81.30;;;;;;5039015;28;20075;-47
2022/01/16 04:03:54;;;;;;;18.00;10.30;;;8.90;80.20;;;;;;5038771;28;20021;-48
2022/01/16 04:06:21;;;;;;;17.30;10.15;;;8.90;80.00;;;;;;5038804;28;20086;-45
2022/01/16 04:08:48;;;;;;;17.80;10.38;;;8.90;79.80;;;;;;5038647;28;20091;-45
2022/01/16 04:11:14;;;;;;;20.40;11.50;;;8.90;79.70;;;;;;5038824;28;20025;-45
2022/01/16 04:13:49;;;;;;;17.60;10.27;;;8.90;79.60;;;;;;5038793;28;20393;-46
2022/01/16 04:16:15;;;;;;;;;;;8.90;79.60;;;;;;5038960;28;20056;-46
2022/01/16 04:18:41;;;;;;;16.98;10.13;;;8.90;80.30;;;;;;5038900;28;19905;-47
2022/01/16 04:21:07;;;;;;;17.42;10.38;;;8.90;80.20;;;;;;5038532;28;20060;-46
2022/01/16 04:23:33;;;;;;;17.20;10.25;;;8.90;80.00;;;;;;5038616;28;20030;-45
2022/01/16 04:25:58;;;;;;;17.48;10.70;;;8.90;80.00;;;;;;5038265;28;20030;-46
2022/01/16 04:28:25;;;;;;;17.17;10.63;;;8.90;80.30;;;;;;5038459;28;20112;-46
2022/01/16 04:30:53;;;;;;;18.42;10.70;;;8.90;79.90;;;;;;5038433;28;20572;-46
2022/01/16 04:33:20;;;;;;;18.77;11.35;;;9.00;80.40;;;;;;5038374;28;20120;-46
2022/01/16 04:35:46;;;;;;;20.13;12.23;;;9.00;79.80;;;;;;5038634;28;20053;-46
2022/01/16 04:38:12;;;;;;;17.77;11.93;;;9.00;80.00;;;;;;5037701;28;20033;-46
2022/01/16 04:43:47;;;;;;;21.85;11.57;;;9.00;79.60;;;;;;5038559;28;20487;-46
2022/01/16 04:46:11;;;;;;;22.43;13.13;;;9.00;80.10;;;;;;5038434;28;20052;-46
2022/01/16 04:48:37;;;;;;;24.05;12.88;;;9.00;79.70;;;;;;5038192;28;20731;-46
2022/01/16 04:51:03;;;;;;;20.00;12.90;;;9.00;79.40;;;;;;5038110;28;20155;-46
2022/01/16 04:53:28;;;;;;;20.42;11.48;;;9.00;79.70;;;;;;5038075;28;20021;-45
2022/01/16 04:55:55;;;;;;;20.58;11.73;;;9.00;80.10;;;;;;5038147;28;20124;-46
2022/01/16 04:58:21;;;;;;;21.58;12.25;;;9.00;80.00;;;;;;5038387;28;20045;-47
2022/01/16 05:00:47;;;;;;;20.98;12.48;;;8.90;79.90;;;;;;5037984;28;20477;-46
2022/01/16 05:03:13;;;;;;;21.70;12.98;;;8.90;80.20;;;;;;5037853;28;20025;-47
2022/01/16 05:05:38;;;;;;;22.80;14.45;;;8.90;79.80;;;;;;5037988;28;20037;-47
2022/01/16 05:08:04;;;;;;;24.15;13.00;;;8.90;79.30;;;;;;5038079;28;20025;-46
2022/01/16 05:10:31;;;;;;;20.50;12.15;;;8.90;79.10;;;;;;5037645;28;20035;-46
2022/01/16 05:13:15;;;;;;;23.65;12.10;;;8.80;79.50;;;;;;5037736;28;20090;-46
2022/01/16 05:18:25;;;;;;;22.55;12.23;;;8.80;79.10;;;;;;5038111;28;20535;-45
2022/01/16 05:20:51;;;;;;;21.40;12.25;;;8.80;79.40;;;;;;5037650;28;20095;-46
2022/01/16 05:23:17;;;;;;;22.92;13.02;;;8.80;79.30;;;;;;5037673;28;20127;-46
2022/01/16 05:25:43;;;;;;;23.52;13.00;;;8.80;79.00;;;;;;5038025;28;20061;-46
2022/01/16 05:28:08;;;;;;;19.52;11.95;;;8.80;78.90;;;;;;5037874;28;20428;-45
2022/01/16 05:30:34;;;;;;;19.35;11.45;;;8.70;79.20;;;;;;5038035;28;20021;-46
2022/01/16 05:33:00;;;;;;;18.27;10.43;;;8.60;79.10;;;;;;5037593;28;20018;-45
2022/01/16 05:35:26;;;;;;;20.05;11.82;;;8.60;79.20;;;;;;5037789;28;20029;-47
2022/01/16 05:37:51;;;;;;;18.90;11.50;;;8.50;80.10;;;;;;5037744;28;20061;-48
2022/01/16 05:40:17;;;;;;;22.65;12.25;;;8.50;80.50;;;;;;5037449;28;20034;-45
2022/01/16 05:42:43;;;;;;;21.30;12.85;;;8.50;79.80;;;;;;5037938;28;20033;-45
2022/01/16 05:45:09;;;;;;;21.10;11.85;;;8.60;79.70;;;;;;5037382;28;20041;-46
2022/01/16 05:47:35;;;;;;;20.58;12.63;;;8.60;79.90;;;;;;5037562;28;20049;-48
2022/01/16 05:50:01;;;;;;;19.60;11.82;;;8.60;80.20;;;;;;5041083;28;20547;-45
2022/01/16 05:52:26;;;;;;;21.70;13.23;;;8.60;79.70;;;;;;5041451;28;20025;-46
2022/01/16 05:54:52;;;;;;;20.60;11.05;;;8.60;79.70;;;;;;5041605;28;20034;-47
2022/01/16 05:57:18;;;;;;;20.02;11.48;;;8.70;79.80;;;;;;5041746;28;20026;-46
2022/01/16 05:59:44;;;;;;;21.38;11.15;;;8.70;79.70;;;;;;5041309;28;20024;-46
2022/01/16 06:02:09;;;;;;;23.73;12.18;;;8.70;79.70;;;;;;5041451;28;20028;-46
2022/01/16 06:04:35;;;;;;;19.98;11.57;;;8.70;79.80;;;;;;5041297;28;20488;-45
2022/01/16 06:07:01;;;;;;;21.80;12.43;;;8.70;80.00;;;;;;5041059;28;20025;-45
2022/01/16 06:09:27;;;;;;;19.38;11.57;;;8.70;79.80;;;;;;5040897;28;20087;-45
2022/01/16 06:11:55;;;;;;;18.15;10.45;;;8.80;80.70;;;;;;5041068;28;20026;-45
2022/01/16 06:14:22;;;;;;;18.50;12.88;;;8.80;79.80;;;;;;5041053;28;20535;-45
2022/01/16 06:16:48;;;;;;;17.25;11.35;;;8.80;79.70;;;;;;5041158;28;20045;-45
2022/01/16 06:19:13;;;;;;;18.27;10.65;;;8.80;79.60;;;;;;5041387;28;20056;-46
2022/01/16 06:21:39;;;;;;;21.33;11.88;;;8.80;79.40;;;;;;5040585;28;20049;-46
2022/01/16 06:24:05;;;;;;;19.98;10.68;;;8.80;79.70;;;;;;5040668;28;20034;-46
2022/01/16 06:26:31;;;;;;;18.27;11.52;;;8.80;79.20;;;;;;5040718;28;20022;-46
2022/01/16 06:28:58;;;;;;;20.80;10.90;;;8.80;79.10;;;;;;5040847;28;20108;-46
2022/01/16 06:31:24;;;;;;;18.17;10.68;;;8.70;79.10;;;;;;5040908;28;20018;-46
2022/01/16 06:33:50;;;;;;;19.15;10.90;;;8.70;79.10;;;;;;5040931;28;20029;-47
2022/01/16 06:36:16;;;;;;;18.63;10.30;;;8.60;79.20;;;;;;5040825;28;20030;-46
2022/01/16 06:38:42;;;;;;;18.10;10.68;;;8.60;78.90;;;;;;5041079;28;20053;-45
2022/01/16 06:41:09;;;;;;;17.48;10.18;;;8.40;78.40;;;;;;5040760;28;20072;-49
2022/01/16 06:43:35;;;;;;;16.25;9.82;;;8.30;78.40;;;;;;5040562;28;20076;-46
2022/01/16 06:46:01;;;;;;;19.98;10.20;;;8.20;78.80;;;;;;5040374;28;20033;-46
2022/01/16 06:48:27;;;;;;;18.25;9.88;;;8.00;78.70;;;;;;5040625;28;20021;-46
2022/01/16 06:50:54;;;;;;;17.90;10.38;;;8.00;78.90;;;;;;5040563;28;20389;-46
2022/01/16 06:53:19;;;;;;;18.58;10.60;;;7.90;79.00;;;;;;5040333;28;20052;-46
2022/01/16 06:55:45;;;;;;;17.33;10.77;;;7.80;79.20;;;;;;5040670;28;20444;-48
2022/01/16 06:58:11;;;;;;;18.35;10.60;;;7.80;79.20;;;;;;5040184;28;20409;-46
2022/01/16 07:00:37;;;;;;;18.67;11.55;;;7.80;79.60;;;;;;5039802;28;20041;-46
2022/01/16 07:03:02;;;;;;;17.25;9.55;;;7.80;78.80;;;;;;5040124;28;20080;-46
2022/01/16 07:05:28;;;;;;;16.65;9.82;;;7.80;79.40;;;;;;5040050;28;20085;-45
2022/01/16 07:07:54;;;;;;;16.60;9.90;;;7.80;79.70;;;;;;5040099;28;20100;-45
2022/01/16 07:10:20;;;;;;;18.20;9.90;;;7.80;79.70;;;;;;5040337;28;20021;-48
2022/01/16 07:12:46;;;;;;;15.35;9.60;;;7.90;79.40;;;;;;5040251;28;20370;-46
2022/01/16 07:15:12;;;;;;;17.13;9.90;;;7.90;79.60;;;;;;5039874;28;20026;-48
2022/01/16 07:17:38;;;;;;;16.77;9.68;;;7.90;80.20;;;;;;5040320;28;20022;-46
2022/01/16 07:20:04;;;;;;;17.08;9.68;;;8.00;79.70;;;;;;5039841;28;20022;-46
2022/01/16 07:22:29;;;;;;;15.52;9.20;;;8.00;79.80;;;;;;5040182;28;20026;-45
2022/01/16 07:24:55;;;;;;;18.88;10.90;;;8.00;80.10;;;;;;5039878;28;20026;-46
2022/01/16 07:27:21;;;;;;;18.13;10.80;;;8.00;80.00;;;;;;5039703;28;20071;-46
2022/01/16 07:29:47;;;;;;;20.65;11.45;;;8.00;79.70;;;;;;5039872;28;20076;-47
2022/01/16 07:32:13;;;;;;;20.40;11.48;;;8.00;79.80;;;;;;5039874;28;20028;-45
2022/01/16 07:34:39;;;;;;;19.33;11.85;;;8.00;80.00;;;;;;5039978;28;20025;-46
2022/01/16 07:37:05;;;;;;;19.40;11.27;;;7.90;80.40;;;;;;5039727;28;20033;-47
2022/01/16 07:39:31;;;;;;;25.98;15.57;;;8.00;80.10;;;;;;5039688;28;20449;-48
2022/01/16 07:41:56;;;;;;;22.35;14.75;;;8.00;80.20;;;;;;5039418;28;20029;-46
2022/01/16 07:44:22;;;;;;;19.30;11.43;;;8.00;80.00;;;;;;5039430;28;20029;-51
2022/01/16 07:46:48;;;;;;;18.67;10.73;;;8.00;79.90;;;;;;5039085;28;20025;-51
2022/01/16 07:49:14;;;;;;;16.92;10.07;;;8.10;79.70;;;;;;5039519;28;20025;-48
2022/01/16 07:51:40;;;;;;;17.60;10.32;;;8.10;79.70;;;;;;5039408;28;20013;-50
2022/01/16 07:54:06;;;;;;;17.60;11.05;;;8.10;79.50;;;;;;5039283;28;20466;-45
2022/01/16 07:56:31;;;;;;;17.48;10.45;;;8.10;79.40;;;;;;5039075;28;20036;-46
2022/01/16 07:58:57;;;;;;;17.75;10.77;;;8.10;79.20;;;;;;5039304;28;20033;-46
2022/01/16 08:01:23;;;;;;;20.70;11.00;;;8.20;79.00;;;;;;5039022;28;20033;-45
2022/01/16 08:03:49;;;;;;;18.13;10.27;;;8.20;79.30;;;;;;5039195;28;20104;-46
2022/01/16 08:06:16;;;;;;;17.23;10.40;;;8.10;79.10;;;;;;5021065;28;20061;-46
2022/01/16 08:08:42;;;;;;;18.98;10.50;;;8.20;79.00;;;;;;5039114;28;20034;-48
2022/01/16 08:11:10;;;;;;;18.67;10.80;;;8.20;79.20;;;;;;5038926;28;20022;-47
2022/01/16 08:13:37;;;;;;;19.13;11.32;;;8.20;79.70;;;;;;5038155;28;20085;-48
2022/01/16 08:16:04;;;;;;;17.02;10.60;;;8.20;79.40;;;;;;5038959;28;20412;-47
2022/01/16 08:18:30;;;;;;;18.27;10.38;;;8.20;79.10;;;;;;5038784;28;20030;-47
2022/01/16 08:20:55;;;;;;;16.42;10.45;;;8.20;79.50;;;;;;5038748;28;20053;-49
2022/01/16 08:23:21;;;;;;;17.73;10.75;;;8.30;79.70;;;;;;5038601;28;20053;-47
2022/01/16 08:25:47;;;;;;;17.52;10.07;;;8.30;79.50;;;;;;5038665;28;20034;-48
2022/01/16 08:28:13;;;;;;;17.10;10.40;;;8.30;79.60;;;;;;5038725;28;20080;-46
2022/01/16 08:30:39;;;;;;;18.15;10.55;;;8.40;79.40;;;;;;5038533;28;20021;-47
2022/01/16 08:33:05;;;;;;;17.52;10.57;;;8.40;79.70;;;;;;5038432;28;20060;-46
2022/01/16 08:35:30;;;;;;;18.63;9.88;;;8.40;79.90;;;;;;5038629;28;20037;-46
2022/01/16 08:37:56;;;;;;;16.13;9.98;;;8.50;79.70;;;;;;5038381;28;20029;-47
2022/01/16 08:40:22;;;;;;;16.58;9.88;;;8.50;79.40;;;;;;5037684;28;20342;-47
2022/01/16 08:42:48;;;;;;;18.55;10.25;;;8.60;79.30;;;;;;5037902;28;20087;-49
2022/01/16 08:45:14;;;;;;;17.25;9.98;;;8.60;79.10;;;;;;5037028;28;20025;-46
2022/01/16 08:47:40;;;;;;;16.10;9.35;;;8.70;79.20;;;;;;5036238;28;20029;-49
2022/01/16 08:50:09;;;;;;;16.88;10.15;;;8.60;79.10;;;;;;5037060;28;20045;-46
2022/01/16 08:52:35;;;;;;;15.68;9.95;;;8.60;79.10;;;;;;5036051;28;20461;-49
2022/01/16 08:55:02;;;;;;;16.88;9.57;;;8.70;79.20;;;;;;5034701;28;20230;-48
2022/01/16 08:57:28;;;;;;;16.02;9.48;;;8.70;79.20;;;;;;5035779;28;20037;-49
2022/01/16 08:59:54;;;;;;;14.50;9.90;;;8.70;79.30;;;;;;5035937;28;20053;-47
2022/01/16 09:02:19;;;;;;;14.27;9.23;;;8.80;79.70;;;;;;5035676;28;20025;-46
2022/01/16 09:04:45;;;;;;;15.30;9.23;;;8.80;81.00;;;;;;5035873;28;20460;-46
2022/01/16 09:07:12;;;;;;;14.90;8.35;;;8.90;80.30;;;;;;5035751;28;20035;-48
2022/01/16 09:09:38;;;;;;;15.93;10.00;;;9.00;81.00;;;;;;5035842;28;20028;-48
2022/01/16 09:12:04;;;;;;;18.92;10.00;;;9.10;80.80;;;;;;5035808;28;20025;-46
2022/01/16 09:14:29;;;;;;;15.38;9.25;;;9.30;80.90;;;;;;5035961;28;20022;-48
2022/01/16 09:16:55;;;;;;;15.20;8.98;;;9.60;81.90;;;;;;5036538;28;20084;-51
2022/01/16 09:19:21;;;;;;;15.15;7.35;;;9.90;82.20;;;;;;5038098;28;20068;-46
2022/01/16 09:21:47;;;;;;;12.10;7.28;;;10.30;83.10;;;;;;5037527;28;20406;-48
2022/01/16 09:24:12;;;;;;;14.07;7.65;;;10.60;82.80;;;;;;5037590;28;20381;-46
2022/01/16 09:26:38;;;;;;;11.70;8.32;;;10.90;81.20;;;;;;5037791;28;20029;-47
2022/01/16 09:29:04;;;;;;;14.00;7.65;;;11.00;80.60;;;;;;5037544;28;20022;-46
2022/01/16 09:31:30;;;;;;;13.10;6.95;;;11.10;80.00;;;;;;5037615;28;20108;-47
2022/01/16 09:33:56;;;;;;;12.32;6.22;;;11.10;79.70;;;;;;5037773;28;20093;-48
2022/01/16 09:36:22;;;;;;;10.00;5.72;;;11.10;80.20;;;;;;5037575;28;20120;-46
2022/01/16 09:38:48;;;;;;;13.27;7.15;;;11.10;80.00;;;;;;5037565;28;20060;-48
2022/01/16 09:41:14;;;;;;;10.68;7.10;;;11.10;80.00;;;;;;5037510;28;20032;-48
2022/01/16 09:43:41;;;;;;;11.55;7.45;;;11.20;79.60;;;;;;5037543;28;20072;-46
2022/01/16 09:46:07;;;;;;;17.92;10.23;;;11.20;79.70;;;;;;5037579;28;20118;-46
2022/01/16 09:48:33;;;;;;;15.23;10.27;;;11.20;79.60;;;;;;5037695;28;20053;-46
2022/01/16 09:50:59;;;;;;;15.57;10.85;;;11.30;79.40;;;;;;5037440;28;20104;-48
2022/01/16 09:53:25;;;;;;;24.98;19.48;;;11.20;79.30;;;;;;5037723;28;20034;-49
2022/01/16 09:55:51;;;;;;;18.73;11.35;;;11.20;79.10;;;;;;5037349;28;20385;-49
2022/01/16 09:58:19;;;;;;;16.05;10.38;;;11.30;79.20;;;;;;5037445;28;20038;-46
2022/01/16 10:00:45;;;;;;;23.38;15.55;;;11.30;78.90;;;;;;5037342;28;20025;-49
2022/01/16 10:03:41;;;;;;;14.43;8.77;;;11.20;79.20;;;;;;5037536;28;20549;-49
2022/01/16 10:06:20;;;;;;;12.40;7.63;;;11.20;79.50;;;;;;5037335;28;20064;-47
2022/01/16 10:08:51;;;;;;;12.43;7.32;;;11.20;79.60;;;;;;5036850;28;20030;-49
2022/01/16 10:11:40;;;;;;;12.32;7.18;;;11.20;79.90;;;;;;5036887;28;20080;-50
2022/01/16 10:14:21;;;;;;;28.63;21.63;;;11.30;79.70;;;;;;5036931;28;20075;-49
2022/01/16 10:16:47;;;;;;;22.27;14.70;;;11.30;79.70;;;;;;5037003;28;20021;-48
2022/01/16 10:19:21;;;;;;;18.80;13.23;;;11.30;80.00;;;;;;5036888;28;20073;-48
2022/01/16 10:21:48;;;;;;;9.02;5.40;;;11.40;80.10;;;;;;5036456;28;20057;-49
2022/01/16 10:24:18;;;;;;;9.88;5.38;;;11.50;80.00;;;;;;5036473;28;20025;-51
2022/01/16 10:26:44;;;;;;;10.90;6.30;;;11.50;79.60;;;;;;5036947;28;20493;-50
2022/01/16 10:29:20;;;;;;;10.57;5.45;;;11.50;79.80;;;;;;5036527;28;20030;-50
2022/01/16 10:31:47;;;;;;;8.70;5.03;;;11.50;79.80;;;;;;5036681;28;20089;-48
2022/01/16 10:34:33;;;;;;;8.43;4.90;;;11.50;80.20;;;;;;5036825;28;20022;-48
2022/01/16 10:36:59;;;;;;;8.02;4.68;;;11.50;80.10;;;;;;5040073;28;20033;-47
2022/01/16 10:39:25;;;;;;;8.55;4.18;;;11.50;79.70;;;;;;5040458;28;20032;-49
2022/01/16 10:42:16;;;;;;;9.65;5.20;;;11.50;79.80;;;;;;5040288;28;20489;-49
2022/01/16 10:44:43;;;;;;;10.55;5.18;;;11.50;79.80;;;;;;5040122;28;20038;-50
2022/01/16 10:47:29;;;;;;;11.30;7.00;;;11.50;80.00;;;;;;5040066;28;20029;-51
2022/01/16 10:49:59;;;;;;;8.57;5.28;;;11.50;79.90;;;;;;5040261;28;20056;-50
2022/01/16 10:52:25;;;;;;;7.88;4.00;;;11.60;80.20;;;;;;5040132;28;20079;-50
2022/01/16 10:54:51;;;;;;;8.90;4.30;;;11.60;79.90;;;;;;5040204;28;20025;-48
2022/01/16 10:57:25;;;;;;;7.68;4.20;;;11.60;79.80;;;;;;5040332;28;20034;-49
2022/01/16 11:00:12;;;;;;;8.43;4.22;;;11.60;79.80;;;;;;5038811;28;20373;-51
2022/01/16 11:02:39;;;;;;;16.15;4.60;;;11.70;79.80;;;;;;5039995;28;20037;-50
2022/01/16 11:05:11;;;;;;;7.72;4.18;;;11.80;79.60;;;;;;5039593;28;20025;-47
2022/01/16 11:07:38;;;;;;;6.93;3.88;;;11.90;79.80;;;;;;5039487;28;20547;-48
2022/01/16 11:10:26;;;;;;;7.97;4.07;;;12.00;79.70;;;;;;5038229;28;20030;-50
2022/01/16 11:12:54;;;;;;;10.95;4.97;;;12.20;79.60;;;;;;5039236;28;20493;-50
2022/01/16 11:15:20;;;;;;;7.25;4.30;;;12.60;79.60;;;;;;5039739;28;20355;-49
2022/01/16 11:17:46;;;;;;;7.35;4.13;;;13.00;77.40;;;;;;5039026;28;20029;-46
2022/01/16 11:20:14;;;;;;;9.15;3.95;;;13.30;76.90;;;;;;5039392;28;20033;-48
2022/01/16 11:22:57;;;;;;;9.13;3.88;;;13.30;75.60;;;;;;5039936;28;20397;-48
2022/01/16 11:25:33;;;;;;;8.02;4.00;;;13.40;76.70;;;;;;5039154;28;20057;-48
2022/01/16 11:28:08;;;;;;;8.48;4.05;;;13.60;74.70;;;;;;5039052;28;20060;-48
2022/01/16 11:30:47;;;;;;;7.53;4.13;;;13.80;74.50;;;;;;5039069;28;20022;-48
2022/01/16 11:33:14;;;;;;;10.88;4.60;;;14.30;73.30;;;;;;5039415;28;20021;-48
2022/01/16 11:35:44;;;;;;;8.00;3.97;;;14.60;73.80;;;;;;5039167;28;20416;-49
2022/01/16 11:38:10;;;;;;;10.13;4.45;;;14.80;72.30;;;;;;5039315;28;20033;-46
2022/01/16 11:40:46;;;;;;;13.77;9.82;;;14.90;71.30;;;;;;5039315;28;20029;-49
2022/01/16 11:43:17;;;;;;;8.57;3.83;;;15.00;72.20;;;;;;5039302;28;20022;-48
2022/01/16 11:46:01;;;;;;;8.90;4.15;;;15.00;72.00;;;;;;5038883;28;20018;-49
2022/01/16 11:48:36;;;;;;;10.50;5.57;;;15.10;70.80;;;;;;5039126;28;20026;-48
2022/01/16 11:51:04;;;;;;;;;;;15.00;71.50;;;;;;5039481;28;20079;-47
2022/01/16 11:54:07;;;;;;;8.57;4.22;;;14.80;70.60;;;;;;5038844;28;19905;-48
2022/01/16 11:56:42;;;;;;;10.75;3.78;;;14.60;70.80;;;;;;5038213;28;20061;-51
2022/01/16 11:59:32;;;;;;;8.23;4.30;;;14.60;71.60;;;;;;5038903;28;20036;-49
2022/01/16 12:02:01;;;;;;;7.30;3.50;;;14.70;71.50;;;;;;5038929;28;20091;-48
2022/01/16 12:04:29;;;;;;;7.75;3.78;;;14.90;71.70;;;;;;5038551;28;20032;-50
2022/01/16 12:06:55;;;;;;;7.53;4.05;;;14.90;70.90;;;;;;5038444;28;20033;-50
2022/01/16 12:12:14;;;;;;;12.38;4.18;;;15.10;71.20;;;;;;5038415;28;20034;-50
2022/01/16 12:14:52;;;;;;;6.35;3.38;;;15.00;69.70;;;;;;5038590;28;20060;-49
2022/01/16 12:17:47;;;;;;;8.02;3.88;;;14.90;69.60;;;;;;5038697;28;20033;-52
2022/01/16 12:20:17;;;;;;;;;;;14.60;69.40;;;;;;5038338;28;20096;-53
2022/01/16 12:22:44;;;;;;;7.38;3.65;;;14.40;71.50;;;;;;5038128;28;19905;-50
2022/01/16 12:25:36;;;;;;;6.85;3.45;;;14.40;71.60;;;;;;5038157;28;20057;-47
2022/01/16 12:28:04;;;;;;;5.93;3.47;;;14.40;71.10;;;;;;5038090;28;20065;-49
2022/01/16 12:30:55;;;;;;;8.43;3.63;;;14.60;72.40;;;;;;5038293;28;20040;-50
2022/01/16 12:33:25;;;;;;;7.75;3.65;;;15.10;71.50;;;;;;5038222;28;20512;-51
2022/01/16 12:35:51;;;;;;;7.50;3.67;;;16.30;73.50;;;;;;5038092;28;20071;-50
2022/01/16 12:38:23;;;;;;;5.82;3.00;;;17.80;69.00;;;;;;5037912;28;20033;-48
2022/01/16 12:41:11;;;;;;;8.38;3.85;;;19.20;64.20;;;;;;5038008;28;20025;-49
2022/01/16 12:43:48;;;;;;;7.05;3.65;;;19.90;66.00;;;;;;5038004;28;20095;-49
2022/01/16 12:46:18;;;;;;;5.53;2.80;;;20.50;63.40;;;;;;5037739;28;20025;-50
2022/01/16 12:48:46;;;;;;;5.97;3.05;;;20.20;60.70;;;;;;5037894;28;20033;-52
2022/01/16 12:51:15;;;;;;;6.82;3.47;;;19.70;61.30;;;;;;5037795;28;20022;-49
2022/01/16 12:53:50;;;;;;;4.82;3.15;;;19.10;60.70;;;;;;5037786;28;20029;-48
2022/01/16 12:56:20;;;;;;;5.53;2.63;;;18.90;61.10;;;;;;5037891;28;20107;-49
2022/01/16 12:58:47;;;;;;;8.00;3.08;;;18.80;61.70;;;;;;5036881;28;20370;-47
2022/01/16 13:01:13;;;;;;;3.58;2.25;;;19.10;62.50;;;;;;5037709;28;20029;-47
2022/01/16 13:03:42;;;;;;;5.10;2.42;;;19.40;61.50;;;;;;5037703;28;20029;-50
2022/01/16 13:06:20;;;;;;;27.35;19.40;;;19.60;58.90;;;;;;5037264;28;20029;-49
2022/01/16 13:09:02;;;;;;;12.75;8.73;;;19.90;56.70;;;;;;5037557;28;20028;-53
2022/01/16 13:11:37;;;;;;;27.25;21.00;;;20.50;61.10;;;;;;5037595;28;20021;-49
2022/01/16 13:14:08;;;;;;;19.45;15.23;;;21.40;56.40;;;;;;5037710;28;20029;-50
2022/01/16 13:16:39;;;;;;;9.80;6.68;;;22.10;60.90;;;;;;5037590;28;20032;-51
2022/01/16 13:19:26;;;;;;;11.73;8.68;;;22.80;59.50;;;;;;5037243;28;20555;-48
2022/01/16 13:22:13;;;;;;;8.13;5.60;;;22.80;55.80;;;;;;5036997;28;20133;-48
2022/01/16 13:24:40;;;;;;;5.28;2.90;;;22.80;58.00;;;;;;5037016;28;20036;-48
2022/01/16 13:27:12;;;;;;;5.28;2.75;;;22.30;52.80;;;;;;5037131;28;20078;-47
2022/01/16 13:29:43;;;;;;;4.18;2.65;;;21.80;54.60;;;;;;5037065;28;20033;-51
2022/01/16 13:32:11;;;;;;;6.90;3.30;;;21.50;54.30;;;;;;5037340;28;20022;-47